Townsend, MT

2:46 AM MDT on September 21, 2014 (GMT -0600)
Mission | Change Station
CLOSE
Current Station
Airport
Location: Livingston,
Elevation: 4656 ft
Nearby Weather Stations

Elev 4656 ft 45.70 °N, 110.44 °W | Updated 53 minutes ago

Clear
Clear
52 °F
Feels Like 52 °F
N
8
Wind Variable Wind from East

Today
High -- | Low -- °F
--% Chance of Precip.
Yesterday
High -- | Low -- °F
Precip. -- in
7:11 AM 7:25 PM
Waning Crescent, 8% visible
Pressure 30.22 in
Visibility 10.0 miles
Clouds Clear
Dew Point 41 °F
Humidity 66%
Rainfall 0.00 in
Snow Depth Not available.
UV 0 out of 12
Pollen 5.70 out of 12
Air Quality Not available.
Flu Activity Not available.
METAR KLVM 210753Z AUTO 10007KT 10SM CLR 11/05 A3031 RMK AO2 SLP232 T01110050

More Conditions Fewer Conditions

Pressure 30.22 in
Visibility 10.0 miles
Clouds Clear
Dew Point 41 °F
Humidity 66%
Rainfall 0.00 in
Snow Depth Not available.
UV 0 out of 12
Pollen 5.70 out of 12
Air Quality Not available.
Flu Activity Not available.
METAR KLVM 210753Z AUTO 10007KT 10SM CLR 11/05 A3031 RMK AO2 SLP232 T01110050

More Conditions Fewer Conditions

10-Day Weather Forecast

Almanac

Astronomy

Sep. 21, 2014 Rise Set
Actual Time 7:11 AM MDT 7:25 PM MDT
Civil Twilight 6:41 AM MDT 7:55 PM MDT
Nautical Twilight 6:06 AM MDT 8:30 PM MDT
Astronomical Twilight 5:29 AM MDT 9:06 PM MDT
Moon 4:42 AM MDT 6:08 PM MDT
Length of Visible Light 13h 13m
Length of Day
12h 13m
Tomorrow will be 3m 15s shorter.
Waning Crescent, 8% of the Moon is Illuminated
Today
Waning Crescent
Sep 24
New
Oct 1
First Quarter
Oct 8
Full
Oct 15
Last Quarter

Today's Extremes

State Highs State Lows

Community

WunderPhotos

Upload Photos

1,755,100 photos uploaded!

Nearby

Snow Depth

Station Depth Elevation
Short Creek 0 in 7000 ft
Tepee Creek 0 in 8000 ft
Lone Mountain 0 in 8880 ft
Divide 0 in 7800 ft
Kraft Creek 0 in 4750 ft

Earthquake Activity

City Distance Mag. Time & Date
No recent earthquake activity has been reported nearby.
Minimum magnitude displayed is 2.5.

Coastal Water Temperatures

Place Temperature
No Stations Reporting

Nearby Weather Stations